SBOSBO ANU / TAPA
Speedbird OnlineSpeedbird Online ANU / TAPA

V.C. Bird International Airport
02:51 27°C

Location Antigua, Antigua and Barbuda
Latitude: 17.1367
Longitude: -61.792702
Web Wikipedia
Altitude 19 Meter / 62 Feet
Distance 6,593 KM / 4,097 Miles
from London.
Time Zone UTC -4 hours (America/Antigua)
Codes IATA: ANU
ICAO: TAPA
Currency £1 equals XCD 3.06
Runways
RunwayLength (m)Surface
072744Asphalt
252744Asphalt
Radio
TypeDescriptionFrequency
APPAPP119.1
ATISATIS114.5
GNDGND121.9
RDOANTIQUA RDO26.48
TWRTWR118.2
Live ATC
METAR TAPA 060600Z 08010KT 050V120 9999 SCT020 27/23 Q1012 NOSIG
TAF TAF TAPA 060500Z 0606/0706 08012KT 9999 FEW021 PROB30 TEMPO 0618/0622 SHRA
Weather As Of 06 Oct 2022 02:51
Description Scattered clouds
Wind 19 km/h from East (80°)
Cloud Cover 40%
Precipitation Rain: none, Snow: none
Sunrise 05:58
Sunset 17:52
Lounges Executive Lounge, Main Terminal
Rotations During the last 90 days there were
58 flights from LGW
24 flights from PUJ
24 flights from SKB
23 flights from PLS
12 flights from TAB
80 flights to LGW
20 flights to SKB
19 flights to PUJ
18 flights to PLS
10 flights to TAB


© 2017-2022 Speedbird Online